sensor_id;sensor_type;location;lat;lon;timestamp;pressure;altitude;pressure_sealevel;temperature;humidity
8334;BME280;4204;43.004;23.052;2022-12-18T00:01:21;94573.66;;;6.18;100.00
8334;BME280;4204;43.004;23.052;2022-12-18T00:03:50;94564.41;;;6.15;100.00
8334;BME280;4204;43.004;23.052;2022-12-18T00:06:18;94570.75;;;6.09;100.00
8334;BME280;4204;43.004;23.052;2022-12-18T00:08:47;94562.56;;;6.16;100.00
8334;BME280;4204;43.004;23.052;2022-12-18T00:11:18;94571.03;;;6.08;100.00
8334;BME280;4204;43.004;23.052;2022-12-18T00:13:47;94566.28;;;6.05;100.00
8334;BME280;4204;43.004;23.052;2022-12-18T00:16:18;94573.16;;;6.06;100.00
8334;BME280;4204;43.004;23.052;2022-12-18T00:18:47;94571.81;;;5.98;100.00
8334;BME280;4204;43.004;23.052;2022-12-18T00:21:17;94578.19;;;5.97;100.00
8334;BME280;4204;43.004;23.052;2022-12-18T00:23:46;94585.31;;;5.97;100.00
8334;BME280;4204;43.004;23.052;2022-12-18T00:26:16;94585.84;;;5.89;100.00
8334;BME280;4204;43.004;23.052;2022-12-18T00:28:46;94588.47;;;5.89;100.00
8334;BME280;4204;43.004;23.052;2022-12-18T00:31:16;94596.13;;;5.85;100.00
8334;BME280;4204;43.004;23.052;2022-12-18T00:33:44;94603.47;;;5.78;100.00
8334;BME280;4204;43.004;23.052;2022-12-18T00:36:14;94600.88;;;5.93;100.00
8334;BME280;4204;43.004;23.052;2022-12-18T00:38:42;94606.69;;;5.90;100.00
8334;BME280;4204;43.004;23.052;2022-12-18T00:41:11;94604.59;;;5.87;100.00
8334;BME280;4204;43.004;23.052;2022-12-18T00:43:39;94610.91;;;5.86;100.00
8334;BME280;4204;43.004;23.052;2022-12-18T00:46:08;94609.81;;;5.82;100.00
8334;BME280;4204;43.004;23.052;2022-12-18T00:48:35;94614.06;;;5.83;100.00
8334;BME280;4204;43.004;23.052;2022-12-18T00:51:03;94622.78;;;5.84;100.00
8334;BME280;4204;43.004;23.052;2022-12-18T00:53:33;94618.28;;;5.79;100.00
8334;BME280;4204;43.004;23.052;2022-12-18T00:56:00;94626.44;;;5.78;100.00
8334;BME280;4204;43.004;23.052;2022-12-18T00:58:28;94633.56;;;5.72;100.00
8334;BME280;4204;43.004;23.052;2022-12-18T01:00:56;94628.28;;;5.67;100.00
8334;BME280;4204;43.004;23.052;2022-12-18T01:03:25;94624.06;;;5.76;100.00
8334;BME280;4204;43.004;23.052;2022-12-18T01:05:52;94635.19;;;5.83;100.00
8334;BME280;4204;43.004;23.052;2022-12-18T01:08:20;94635.94;;;5.73;100.00
8334;BME280;4204;43.004;23.052;2022-12-18T01:10:48;94626.16;;;5.69;100.00
8334;BME280;4204;43.004;23.052;2022-12-18T01:13:16;94608.19;;;5.51;100.00
8334;BME280;4204;43.004;23.052;2022-12-18T01:15:48;94632.78;;;5.71;100.00
8334;BME280;4204;43.004;23.052;2022-12-18T01:18:16;94639.91;;;5.71;100.00
8334;BME280;4204;43.004;23.052;2022-12-18T01:20:46;94642.81;;;5.69;100.00
8334;BME280;4204;43.004;23.052;2022-12-18T01:23:13;94634.09;;;5.74;100.00
8334;BME280;4204;43.004;23.052;2022-12-18T01:25:41;94640.44;;;5.78;100.00
8334;BME280;4204;43.004;23.052;2022-12-18T01:28:09;94638.06;;;5.77;100.00
8334;BME280;4204;43.004;23.052;2022-12-18T01:30:37;94641.75;;;5.75;100.00
8334;BME280;4204;43.004;23.052;2022-12-18T01:33:05;94639.94;;;5.81;100.00
8334;BME280;4204;43.004;23.052;2022-12-18T01:35:33;94652.63;;;5.84;100.00
8334;BME280;4204;43.004;23.052;2022-12-18T01:38:02;94652.84;;;5.78;100.00
8334;BME280;4204;43.004;23.052;2022-12-18T01:40:29;94651.25;;;5.82;100.00
8334;BME280;4204;43.004;23.052;2022-12-18T01:42:57;94654.47;;;5.84;100.00
8334;BME280;4204;43.004;23.052;2022-12-18T01:45:27;94659.94;;;5.67;100.00
8334;BME280;4204;43.004;23.052;2022-12-18T01:47:57;94646.72;;;5.57;100.00
8334;BME280;4204;43.004;23.052;2022-12-18T01:50:29;94662.53;;;5.47;100.00
8334;BME280;4204;43.004;23.052;2022-12-18T01:53:00;94665.72;;;5.44;100.00
8334;BME280;4204;43.004;23.052;2022-12-18T01:55:33;94665.19;;;5.42;100.00
8334;BME280;4204;43.004;23.052;2022-12-18T01:58:03;94668.34;;;5.34;100.00
8334;BME280;4204;43.004;23.052;2022-12-18T02:00:31;94662.25;;;5.38;100.00
8334;BME280;4204;43.004;23.052;2022-12-18T02:02:59;94664.66;;;5.40;100.00
8334;BME280;4204;43.004;23.052;2022-12-18T02:05:35;94668.31;;;5.29;100.00
8334;BME280;4204;43.004;23.052;2022-12-18T02:08:10;94673.84;;;5.32;100.00
8334;BME280;4204;43.004;23.052;2022-12-18T02:10:46;94680.16;;;5.26;100.00
8334;BME280;4204;43.004;23.052;2022-12-18T02:13:20;94668.78;;;5.11;100.00
8334;BME280;4204;43.004;23.052;2022-12-18T02:15:56;94651.34;;;5.10;100.00
8334;BME280;4204;43.004;23.052;2022-12-18T02:18:29;94675.41;;;5.23;100.00
8334;BME280;4204;43.004;23.052;2022-12-18T02:21:02;94685.97;;;5.23;100.00
8334;BME280;4204;43.004;23.052;2022-12-18T02:23:45;94679.34;;;5.26;100.00
8334;BME280;4204;43.004;23.052;2022-12-18T02:26:19;94669.13;;;5.39;100.00
8334;BME280;4204;43.004;23.052;2022-12-18T02:28:54;94680.72;;;5.38;100.00
8334;BME280;4204;43.004;23.052;2022-12-18T02:31:28;94677.03;;;5.44;100.00
8334;BME280;4204;43.004;23.052;2022-12-18T02:34:00;94687.34;;;5.51;100.00
8334;BME280;4204;43.004;23.052;2022-12-18T02:36:33;94692.84;;;5.34;100.00
8334;BME280;4204;43.004;23.052;2022-12-18T02:39:04;94694.69;;;5.29;100.00
8334;BME280;4204;43.004;23.052;2022-12-18T02:41:34;94695.94;;;5.16;100.00
8334;BME280;4204;43.004;23.052;2022-12-18T02:44:08;94690.09;;;5.09;100.00
8334;BME280;4204;43.004;23.052;2022-12-18T02:46:39;94687.72;;;5.03;100.00
8334;BME280;4204;43.004;23.052;2022-12-18T02:49:24;94693.25;;;5.06;100.00
8334;BME280;4204;43.004;23.052;2022-12-18T02:52:03;94693.56;;;5.15;100.00
8334;BME280;4204;43.004;23.052;2022-12-18T02:54:43;94707.25;;;5.12;100.00
8334;BME280;4204;43.004;23.052;2022-12-18T02:57:19;94693.53;;;5.05;100.00
8334;BME280;4204;43.004;23.052;2022-12-18T02:59:56;94700.06;;;4.92;100.00
8334;BME280;4204;43.004;23.052;2022-12-18T03:02:29;94711.63;;;4.91;100.00
8334;BME280;4204;43.004;23.052;2022-12-18T03:05:05;94705.59;;;4.96;100.00
8334;BME280;4204;43.004;23.052;2022-12-18T03:07:38;94716.59;;;4.82;100.00
8334;BME280;4204;43.004;23.052;2022-12-18T03:10:14;94709.28;;;4.94;100.00
8334;BME280;4204;43.004;23.052;2022-12-18T03:12:50;94701.88;;;4.91;100.00
8334;BME280;4204;43.004;23.052;2022-12-18T03:15:24;94713.47;;;4.90;100.00
8334;BME280;4204;43.004;23.052;2022-12-18T03:18:04;94714.81;;;4.93;100.00
8334;BME280;4204;43.004;23.052;2022-12-18T03:20:37;94704.00;;;4.89;100.00
8334;BME280;4204;43.004;23.052;2022-12-18T03:23:09;94718.47;;;4.87;100.00
8334;BME280;4204;43.004;23.052;2022-12-18T03:25:42;94720.31;;;4.86;100.00
8334;BME280;4204;43.004;23.052;2022-12-18T03:28:15;94722.06;;;4.76;100.00
8334;BME280;4204;43.004;23.052;2022-12-18T03:30:46;94726.00;;;4.68;100.00
8334;BME280;4204;43.004;23.052;2022-12-18T03:33:19;94726.59;;;4.80;100.00
8334;BME280;4204;43.004;23.052;2022-12-18T03:35:50;94728.69;;;4.73;100.00
8334;BME280;4204;43.004;23.052;2022-12-18T03:38:19;94723.34;;;4.68;100.00
8334;BME280;4204;43.004;23.052;2022-12-18T03:40:59;94739.72;;;4.70;100.00
8334;BME280;4204;43.004;23.052;2022-12-18T03:43:42;94738.69;;;4.71;100.00
8334;BME280;4204;43.004;23.052;2022-12-18T03:46:16;94735.44;;;4.64;100.00
8334;BME280;4204;43.004;23.052;2022-12-18T03:48:52;94740.38;;;4.51;100.00
8334;BME280;4204;43.004;23.052;2022-12-18T03:51:27;94730.38;;;4.53;100.00
8334;BME280;4204;43.004;23.052;2022-12-18T03:53:59;94736.06;;;4.40;100.00
8334;BME280;4204;43.004;23.052;2022-12-18T03:56:37;94735.56;;;4.43;100.00
8334;BME280;4204;43.004;23.052;2022-12-18T03:59:10;94745.31;;;4.42;100.00
8334;BME280;4204;43.004;23.052;2022-12-18T04:01:45;94747.34;;;4.35;100.00
8334;BME280;4204;43.004;23.052;2022-12-18T04:04:16;94755.72;;;4.27;100.00
8334;BME280;4204;43.004;23.052;2022-12-18T04:06:46;94762.88;;;4.32;100.00
8334;BME280;4204;43.004;23.052;2022-12-18T04:09:18;94759.50;;;4.36;100.00
8334;BME280;4204;43.004;23.052;2022-12-18T04:11:47;94763.75;;;4.42;100.00
8334;BME280;4204;43.004;23.052;2022-12-18T04:14:18;94763.13;;;4.30;100.00
8334;BME280;4204;43.004;23.052;2022-12-18T04:16:49;94771.25;;;4.29;100.00
8334;BME280;4204;43.004;23.052;2022-12-18T04:19:21;94780.50;;;4.31;100.00
8334;BME280;4204;43.004;23.052;2022-12-18T04:21:50;94786.06;;;4.35;100.00
8334;BME280;4204;43.004;23.052;2022-12-18T04:24:18;94784.13;;;4.25;100.00
8334;BME280;4204;43.004;23.052;2022-12-18T04:27:03;94786.69;;;4.20;100.00
8334;BME280;4204;43.004;23.052;2022-12-18T04:29:41;94795.84;;;4.13;100.00
8334;BME280;4204;43.004;23.052;2022-12-18T04:32:09;94783.66;;;4.28;100.00
8334;BME280;4204;43.004;23.052;2022-12-18T04:34:38;94798.78;;;4.16;100.00
8334;BME280;4204;43.004;23.052;2022-12-18T04:37:05;94801.13;;;4.13;100.00
8334;BME280;4204;43.004;23.052;2022-12-18T04:39:33;94799.56;;;4.12;100.00
8334;BME280;4204;43.004;23.052;2022-12-18T04:42:07;94813.75;;;4.10;100.00
8334;BME280;4204;43.004;23.052;2022-12-18T04:44:34;94811.94;;;4.16;100.00
8334;BME280;4204;43.004;23.052;2022-12-18T04:47:04;94820.09;;;4.15;100.00
8334;BME280;4204;43.004;23.052;2022-12-18T04:49:32;94819.56;;;4.13;100.00
8334;BME280;4204;43.004;23.052;2022-12-18T04:52:00;94823.44;;;4.05;100.00
8334;BME280;4204;43.004;23.052;2022-12-18T04:54:28;94828.09;;;3.98;100.00
8334;BME280;4204;43.004;23.052;2022-12-18T04:56:55;94835.19;;;3.97;100.00
8334;BME280;4204;43.004;23.052;2022-12-18T04:59:23;94842.84;;;3.99;100.00
8334;BME280;4204;43.004;23.052;2022-12-18T05:01:51;94839.44;;;4.03;100.00
8334;BME280;4204;43.004;23.052;2022-12-18T05:04:21;94849.56;;;4.12;100.00
8334;BME280;4204;43.004;23.052;2022-12-18T05:06:49;94840.31;;;4.09;100.00
8334;BME280;4204;43.004;23.052;2022-12-18T05:09:17;94839.88;;;4.17;100.00
8334;BME280;4204;43.004;23.052;2022-12-18T05:11:44;94852.25;;;4.17;100.00
8334;BME280;4204;43.004;23.052;2022-12-18T05:14:12;94849.66;;;4.22;100.00
8334;BME280;4204;43.004;23.052;2022-12-18T05:16:40;94845.69;;;4.19;100.00
8334;BME280;4204;43.004;23.052;2022-12-18T05:19:08;94843.84;;;4.20;100.00
8334;BME280;4204;43.004;23.052;2022-12-18T05:21:37;94857.16;;;4.08;100.00
8334;BME280;4204;43.004;23.052;2022-12-18T05:24:05;94862.59;;;4.01;100.00
8334;BME280;4204;43.004;23.052;2022-12-18T05:26:33;94870.63;;;3.90;100.00
8334;BME280;4204;43.004;23.052;2022-12-18T05:29:01;94870.34;;;3.86;100.00
8334;BME280;4204;43.004;23.052;2022-12-18T05:31:29;94874.13;;;3.74;100.00
8334;BME280;4204;43.004;23.052;2022-12-18T05:33:57;94864.19;;;3.59;100.00
8334;BME280;4204;43.004;23.052;2022-12-18T05:36:25;94877.41;;;3.64;100.00
8334;BME280;4204;43.004;23.052;2022-12-18T05:38:54;94888.09;;;3.74;100.00
8334;BME280;4204;43.004;23.052;2022-12-18T05:41:22;94890.84;;;3.84;100.00
8334;BME280;4204;43.004;23.052;2022-12-18T05:43:49;94892.91;;;3.82;100.00
8334;BME280;4204;43.004;23.052;2022-12-18T05:46:17;94892.66;;;3.84;100.00
8334;BME280;4204;43.004;23.052;2022-12-18T05:48:46;94890.84;;;3.84;100.00
8334;BME280;4204;43.004;23.052;2022-12-18T05:51:17;94903.75;;;3.86;100.00
8334;BME280;4204;43.004;23.052;2022-12-18T05:53:45;94911.16;;;3.89;100.00
8334;BME280;4204;43.004;23.052;2022-12-18T05:56:18;94909.41;;;3.99;100.00
8334;BME280;4204;43.004;23.052;2022-12-18T05:58:47;94907.22;;;3.91;100.00
8334;BME280;4204;43.004;23.052;2022-12-18T06:01:21;94917.44;;;3.88;100.00
8334;BME280;4204;43.004;23.052;2022-12-18T06:03:49;94914.19;;;3.81;100.00
8334;BME280;4204;43.004;23.052;2022-12-18T06:06:20;94919.16;;;3.77;100.00
8334;BME280;4204;43.004;23.052;2022-12-18T06:08:49;94927.34;;;3.81;100.00
8334;BME280;4204;43.004;23.052;2022-12-18T06:11:20;94932.06;;;3.79;100.00
8334;BME280;4204;43.004;23.052;2022-12-18T06:13:49;94933.38;;;3.76;100.00
8334;BME280;4204;43.004;23.052;2022-12-18T06:16:17;94929.00;;;3.65;100.00
8334;BME280;4204;43.004;23.052;2022-12-18T06:18:45;94934.00;;;3.67;100.00
8334;BME280;4204;43.004;23.052;2022-12-18T06:21:13;94940.38;;;3.71;100.00
8334;BME280;4204;43.004;23.052;2022-12-18T06:23:41;94945.88;;;3.69;100.00
8334;BME280;4204;43.004;23.052;2022-12-18T06:26:11;94957.22;;;3.70;100.00
8334;BME280;4204;43.004;23.052;2022-12-18T06:28:41;94954.88;;;3.73;100.00
8334;BME280;4204;43.004;23.052;2022-12-18T06:31:09;94950.13;;;3.70;100.00
8334;BME280;4204;43.004;23.052;2022-12-18T06:33:38;94956.16;;;3.71;100.00
8334;BME280;4204;43.004;23.052;2022-12-18T06:36:08;94965.09;;;3.70;100.00
8334;BME280;4204;43.004;23.052;2022-12-18T06:38:38;94967.78;;;3.75;100.00
8334;BME280;4204;43.004;23.052;2022-12-18T06:41:07;94965.66;;;3.72;100.00
8334;BME280;4204;43.004;23.052;2022-12-18T06:43:35;94973.25;;;3.68;100.00
8334;BME280;4204;43.004;23.052;2022-12-18T06:46:05;94938.44;;;3.45;100.00
8334;BME280;4204;43.004;23.052;2022-12-18T06:48:33;94986.78;;;3.60;100.00
8334;BME280;4204;43.004;23.052;2022-12-18T06:51:01;94987.03;;;3.59;100.00
8334;BME280;4204;43.004;23.052;2022-12-18T06:53:29;94970.00;;;3.45;100.00
8334;BME280;4204;43.004;23.052;2022-12-18T06:56:00;94988.56;;;3.55;100.00
8334;BME280;4204;43.004;23.052;2022-12-18T06:58:28;94984.91;;;3.56;100.00
8334;BME280;4204;43.004;23.052;2022-12-18T07:00:59;94971.41;;;3.36;100.00
8334;BME280;4204;43.004;23.052;2022-12-18T07:03:29;94985.53;;;3.46;100.00
8334;BME280;4204;43.004;23.052;2022-12-18T07:05:56;94996.69;;;3.53;100.00
8334;BME280;4204;43.004;23.052;2022-12-18T07:08:24;95000.91;;;3.54;100.00
8334;BME280;4204;43.004;23.052;2022-12-18T07:10:52;94996.44;;;3.55;100.00
8334;BME280;4204;43.004;23.052;2022-12-18T07:13:20;94995.16;;;3.57;100.00
8334;BME280;4204;43.004;23.052;2022-12-18T07:15:48;95011.34;;;3.49;100.00
8334;BME280;4204;43.004;23.052;2022-12-18T07:18:16;95011.66;;;3.53;100.00
8334;BME280;4204;43.004;23.052;2022-12-18T07:20:45;95004.50;;;3.48;100.00
8334;BME280;4204;43.004;23.052;2022-12-18T07:23:13;95009.28;;;3.51;100.00
8334;BME280;4204;43.004;23.052;2022-12-18T07:25:40;95011.13;;;3.51;100.00
8334;BME280;4204;43.004;23.052;2022-12-18T07:28:08;95014.53;;;3.51;100.00
8334;BME280;4204;43.004;23.052;2022-12-18T07:30:37;95012.94;;;3.50;100.00
8334;BME280;4204;43.004;23.052;2022-12-18T07:33:05;95024.66;;;3.43;100.00
8334;BME280;4204;43.004;23.052;2022-12-18T07:35:33;95026.81;;;3.46;100.00
8334;BME280;4204;43.004;23.052;2022-12-18T07:38:06;95025.22;;;3.45;100.00
8334;BME280;4204;43.004;23.052;2022-12-18T07:40:34;95035.09;;;3.38;100.00
8334;BME280;4204;43.004;23.052;2022-12-18T07:43:01;95019.81;;;3.35;100.00
8334;BME280;4204;43.004;23.052;2022-12-18T07:45:29;95023.00;;;3.37;100.00
8334;BME280;4204;43.004;23.052;2022-12-18T07:47:57;95018.59;;;3.42;100.00
8334;BME280;4204;43.004;23.052;2022-12-18T07:50:25;94996.28;;;3.11;100.00
8334;BME280;4204;43.004;23.052;2022-12-18T07:52:53;95027.53;;;3.24;100.00
8334;BME280;4204;43.004;23.052;2022-12-18T07:55:22;95028.53;;;3.23;100.00
8334;BME280;4204;43.004;23.052;2022-12-18T07:57:50;95023.84;;;3.25;100.00
8334;BME280;4204;43.004;23.052;2022-12-18T08:00:18;95031.03;;;3.30;100.00
8334;BME280;4204;43.004;23.052;2022-12-18T08:02:46;95041.28;;;3.32;100.00
8334;BME280;4204;43.004;23.052;2022-12-18T08:05:15;95037.66;;;3.33;100.00
8334;BME280;4204;43.004;23.052;2022-12-18T08:07:42;95039.88;;;3.41;100.00
8334;BME280;4204;43.004;23.052;2022-12-18T08:10:10;95036.84;;;3.49;100.00
8334;BME280;4204;43.004;23.052;2022-12-18T08:12:39;95027.75;;;3.40;100.00
8334;BME280;4204;43.004;23.052;2022-12-18T08:15:08;95052.19;;;3.52;100.00
8334;BME280;4204;43.004;23.052;2022-12-18T08:17:36;95056.28;;;3.48;100.00
8334;BME280;4204;43.004;23.052;2022-12-18T08:20:04;95063.69;;;3.34;100.00
8334;BME280;4204;43.004;23.052;2022-12-18T08:22:33;95061.94;;;3.40;100.00
8334;BME280;4204;43.004;23.052;2022-12-18T08:25:06;95061.88;;;3.35;100.00
8334;BME280;4204;43.004;23.052;2022-12-18T08:27:34;95058.75;;;3.38;100.00
8334;BME280;4204;43.004;23.052;2022-12-18T08:30:04;95045.59;;;3.38;100.00
8334;BME280;4204;43.004;23.052;2022-12-18T08:32:32;95071.59;;;3.51;100.00
8334;BME280;4204;43.004;23.052;2022-12-18T08:35:00;95070.72;;;3.45;100.00
8334;BME280;4204;43.004;23.052;2022-12-18T08:37:28;95071.28;;;3.47;100.00
8334;BME280;4204;43.004;23.052;2022-12-18T08:39:55;95070.38;;;3.42;100.00
8334;BME280;4204;43.004;23.052;2022-12-18T08:42:23;95076.41;;;3.54;100.00
8334;BME280;4204;43.004;23.052;2022-12-18T08:45:16;95070.66;;;3.57;100.00
8334;BME280;4204;43.004;23.052;2022-12-18T08:47:44;95068.72;;;3.52;100.00
8334;BME280;4204;43.004;23.052;2022-12-18T08:50:11;95074.13;;;3.46;100.00
8334;BME280;4204;43.004;23.052;2022-12-18T08:52:39;95073.38;;;3.45;100.00
8334;BME280;4204;43.004;23.052;2022-12-18T08:55:08;95080.31;;;3.51;100.00
8334;BME280;4204;43.004;23.052;2022-12-18T08:57:36;95051.34;;;3.35;100.00
8334;BME280;4204;43.004;23.052;2022-12-18T09:00:05;95066.81;;;3.48;100.00
8334;BME280;4204;43.004;23.052;2022-12-18T09:02:34;95058.00;;;3.54;100.00
8334;BME280;4204;43.004;23.052;2022-12-18T09:05:02;95067.97;;;3.52;100.00
8334;BME280;4204;43.004;23.052;2022-12-18T09:07:30;95074.41;;;3.61;100.00
8334;BME280;4204;43.004;23.052;2022-12-18T09:09:58;95067.47;;;3.55;100.00
8334;BME280;4204;43.004;23.052;2022-12-18T09:12:26;95070.50;;;3.63;100.00
8334;BME280;4204;43.004;23.052;2022-12-18T09:14:54;95071.63;;;3.67;100.00
8334;BME280;4204;43.004;23.052;2022-12-18T09:17:22;95072.00;;;3.59;100.00
8334;BME280;4204;43.004;23.052;2022-12-18T09:19:51;95086.13;;;3.70;100.00
8334;BME280;4204;43.004;23.052;2022-12-18T09:22:19;95076.41;;;3.70;100.00
8334;BME280;4204;43.004;23.052;2022-12-18T09:24:48;95084.47;;;3.80;100.00
8334;BME280;4204;43.004;23.052;2022-12-18T09:27:16;95069.53;;;3.86;100.00
8334;BME280;4204;43.004;23.052;2022-12-18T09:29:44;95075.91;;;3.90;100.00
8334;BME280;4204;43.004;23.052;2022-12-18T09:32:12;95077.19;;;3.87;100.00
8334;BME280;4204;43.004;23.052;2022-12-18T09:34:39;95070.19;;;3.93;100.00
8334;BME280;4204;43.004;23.052;2022-12-18T09:37:09;95077.59;;;3.96;100.00
8334;BME280;4204;43.004;23.052;2022-12-18T09:39:38;95071.59;;;4.00;100.00
8334;BME280;4204;43.004;23.052;2022-12-18T09:42:05;95071.09;;;4.03;100.00
8334;BME280;4204;43.004;23.052;2022-12-18T09:44:44;95073.00;;;4.08;100.00
8334;BME280;4204;43.004;23.052;2022-12-18T09:47:18;95085.47;;;4.13;100.00
8334;BME280;4204;43.004;23.052;2022-12-18T09:49:52;95077.69;;;4.23;100.00
8334;BME280;4204;43.004;23.052;2022-12-18T09:52:26;95056.75;;;4.11;100.00
8334;BME280;4204;43.004;23.052;2022-12-18T09:54:58;95075.72;;;4.30;100.00
8334;BME280;4204;43.004;23.052;2022-12-18T09:57:29;95079.16;;;4.30;100.00
8334;BME280;4204;43.004;23.052;2022-12-18T10:00:03;95076.56;;;4.35;100.00
8334;BME280;4204;43.004;23.052;2022-12-18T10:02:37;95069.25;;;4.21;100.00
8334;BME280;4204;43.004;23.052;2022-12-18T10:05:07;95072.56;;;4.33;100.00
8334;BME280;4204;43.004;23.052;2022-12-18T10:07:47;95074.72;;;4.36;100.00
8334;BME280;4204;43.004;23.052;2022-12-18T10:10:29;95082.75;;;4.24;100.00
8334;BME280;4204;43.004;23.052;2022-12-18T10:13:06;95081.72;;;4.08;100.00
8334;BME280;4204;43.004;23.052;2022-12-18T10:15:40;95084.03;;;4.05;100.00
8334;BME280;4204;43.004;23.052;2022-12-18T10:18:23;95064.41;;;3.96;100.00
8334;BME280;4204;43.004;23.052;2022-12-18T10:20:57;95073.44;;;4.00;100.00
8334;BME280;4204;43.004;23.052;2022-12-18T10:23:33;95076.00;;;4.12;100.00
8334;BME280;4204;43.004;23.052;2022-12-18T10:26:06;95082.97;;;4.23;100.00
8334;BME280;4204;43.004;23.052;2022-12-18T10:28:36;95073.25;;;4.23;100.00
8334;BME280;4204;43.004;23.052;2022-12-18T10:31:05;95076.19;;;4.10;100.00
8334;BME280;4204;43.004;23.052;2022-12-18T10:33:34;95066.19;;;4.07;100.00
8334;BME280;4204;43.004;23.052;2022-12-18T10:36:02;95073.81;;;4.08;100.00
8334;BME280;4204;43.004;23.052;2022-12-18T10:38:33;95082.81;;;4.13;100.00
8334;BME280;4204;43.004;23.052;2022-12-18T10:41:02;95077.31;;;4.14;100.00
8334;BME280;4204;43.004;23.052;2022-12-18T10:43:32;95076.19;;;4.27;100.00
8334;BME280;4204;43.004;23.052;2022-12-18T10:46:04;95082.88;;;4.34;100.00
8334;BME280;4204;43.004;23.052;2022-12-18T10:48:34;95068.78;;;4.24;100.00
8334;BME280;4204;43.004;23.052;2022-12-18T10:51:03;95071.63;;;4.22;100.00
8334;BME280;4204;43.004;23.052;2022-12-18T10:53:33;95078.03;;;4.26;100.00
8334;BME280;4204;43.004;23.052;2022-12-18T10:56:04;95069.09;;;4.27;100.00
8334;BME280;4204;43.004;23.052;2022-12-18T10:58:34;95073.13;;;4.35;100.00
8334;BME280;4204;43.004;23.052;2022-12-18T11:01:08;95076.66;;;4.40;100.00
8334;BME280;4204;43.004;23.052;2022-12-18T11:03:38;95079.81;;;4.42;100.00
8334;BME280;4204;43.004;23.052;2022-12-18T11:06:09;95072.16;;;4.41;100.00
8334;BME280;4204;43.004;23.052;2022-12-18T11:08:39;95077.88;;;4.54;100.00
8334;BME280;4204;43.004;23.052;2022-12-18T11:11:15;95078.97;;;4.58;100.00
8334;BME280;4204;43.004;23.052;2022-12-18T11:13:55;95075.09;;;4.66;100.00
8334;BME280;4204;43.004;23.052;2022-12-18T11:16:26;95080.19;;;4.72;100.00
8334;BME280;4204;43.004;23.052;2022-12-18T11:19:13;95073.34;;;4.71;100.00
8334;BME280;4204;43.004;23.052;2022-12-18T11:21:42;95071.44;;;4.67;100.00
8334;BME280;4204;43.004;23.052;2022-12-18T11:24:20;95072.59;;;4.76;100.00
8334;BME280;4204;43.004;23.052;2022-12-18T11:26:50;95073.16;;;4.78;100.00
8334;BME280;4204;43.004;23.052;2022-12-18T11:29:23;95081.00;;;4.73;100.00
8334;BME280;4204;43.004;23.052;2022-12-18T11:32:07;95078.91;;;4.75;100.00
8334;BME280;4204;43.004;23.052;2022-12-18T11:34:43;95080.19;;;4.72;100.00
8334;BME280;4204;43.004;23.052;2022-12-18T11:37:13;95076.75;;;4.72;100.00
8334;BME280;4204;43.004;23.052;2022-12-18T11:39:51;95082.72;;;4.84;100.00
8334;BME280;4204;43.004;23.052;2022-12-18T11:42:27;95078.75;;;4.81;100.00
8334;BME280;4204;43.004;23.052;2022-12-18T11:45:01;95087.69;;;4.80;100.00
8334;BME280;4204;43.004;23.052;2022-12-18T11:47:38;95086.41;;;4.83;100.00
8334;BME280;4204;43.004;23.052;2022-12-18T11:50:14;95087.94;;;4.79;100.00
8334;BME280;4204;43.004;23.052;2022-12-18T11:52:44;95088.66;;;4.74;100.00
8334;BME280;4204;43.004;23.052;2022-12-18T11:55:15;95090.31;;;4.80;100.00
8334;BME280;4204;43.004;23.052;2022-12-18T11:57:50;95084.91;;;4.70;100.00
8334;BME280;4204;43.004;23.052;2022-12-18T12:00:23;95093.81;;;4.64;100.00
8334;BME280;4204;43.004;23.052;2022-12-18T12:03:17;95094.72;;;4.75;100.00
8334;BME280;4204;43.004;23.052;2022-12-18T12:06:01;95082.09;;;4.77;100.00
8334;BME280;4204;43.004;23.052;2022-12-18T12:08:41;95088.19;;;4.77;100.00
8334;BME280;4204;43.004;23.052;2022-12-18T12:11:20;95085.28;;;4.79;100.00
8334;BME280;4204;43.004;23.052;2022-12-18T12:14:00;95079.78;;;4.80;100.00
8334;BME280;4204;43.004;23.052;2022-12-18T12:16:36;95082.09;;;4.77;100.00
8334;BME280;4204;43.004;23.052;2022-12-18T12:19:16;95079.03;;;4.85;100.00
8334;BME280;4204;43.004;23.052;2022-12-18T12:21:55;95083.31;;;4.91;100.00
8334;BME280;4204;43.004;23.052;2022-12-18T12:24:37;95072.28;;;4.72;100.00
8334;BME280;4204;43.004;23.052;2022-12-18T12:27:16;95086.03;;;4.74;100.00
8334;BME280;4204;43.004;23.052;2022-12-18T12:29:54;95078.91;;;4.75;100.00
8334;BME280;4204;43.004;23.052;2022-12-18T12:32:36;95092.81;;;4.70;100.00
8334;BME280;4204;43.004;23.052;2022-12-18T12:35:19;95093.38;;;4.72;100.00
8334;BME280;4204;43.004;23.052;2022-12-18T12:37:55;95087.56;;;4.70;100.00
8334;BME280;4204;43.004;23.052;2022-12-18T12:40:31;95088.19;;;4.77;100.00
8334;BME280;4204;43.004;23.052;2022-12-18T12:43:11;95088.47;;;4.81;100.00
8334;BME280;4204;43.004;23.052;2022-12-18T12:45:42;95089.09;;;4.88;100.00
8334;BME280;4204;43.004;23.052;2022-12-18T12:48:18;95083.84;;;4.88;100.00
8334;BME280;4204;43.004;23.052;2022-12-18T12:50:49;95079.34;;;4.88;100.00
8334;BME280;4204;43.004;23.052;2022-12-18T12:53:25;95080.94;;;4.89;100.00
8334;BME280;4204;43.004;23.052;2022-12-18T12:55:54;95090.94;;;4.87;100.00
8334;BME280;4204;43.004;23.052;2022-12-18T12:58:31;95080.69;;;4.91;100.00
8334;BME280;4204;43.004;23.052;2022-12-18T13:01:09;95096.03;;;4.94;100.00
8334;BME280;4204;43.004;23.052;2022-12-18T13:03:48;95087.50;;;4.87;100.00
8334;BME280;4204;43.004;23.052;2022-12-18T13:06:29;95085.66;;;4.87;100.00
8334;BME280;4204;43.004;23.052;2022-12-18T13:09:01;95089.09;;;4.88;100.00
8334;BME280;4204;43.004;23.052;2022-12-18T13:11:36;95086.41;;;4.83;100.00
8334;BME280;4204;43.004;23.052;2022-12-18T13:14:27;95097.44;;;4.80;100.00
8334;BME280;4204;43.004;23.052;2022-12-18T13:17:28;95112.75;;;4.83;100.00
8334;BME280;4204;43.004;23.052;2022-12-18T13:20:07;95086.72;;;4.65;100.00
8334;BME280;4204;43.004;23.052;2022-12-18T13:22:37;95114.00;;;4.75;100.00
8334;BME280;4204;43.004;23.052;2022-12-18T13:25:32;95115.56;;;4.76;100.00
8334;BME280;4204;43.004;23.052;2022-12-18T13:28:11;95122.06;;;4.69;100.00
8334;BME280;4204;43.004;23.052;2022-12-18T13:30:50;95123.03;;;4.63;100.00
8334;BME280;4204;43.004;23.052;2022-12-18T13:33:39;95122.88;;;4.69;100.00